Terminal Aerodrome Forecast
Issued by NWS

Home | Current Version | Previous Version | Text Only | Print | Product List | Glossary On
Versions: 1 2 3 4 5 6 7 8 9 10 11 12 13 14 15 16 17
000
FTUS45 KRIW 212300
TAFJAC
TAF
KJAC 212339Z 2200/2224 26017G25KT 5SM -SHSN BLSN SCT020 OVC030
     FM220400 19009KT 6SM -SHSN SCT018 BKN035
     FM221800 31010KT P6SM VCSH SCT030 BKN050
      AMD LTD TO CLD VIS AND WIND=

USA.gov is the U.S. government's official web portal to all federal, state and local government web resources and services.